sensor_id;sensor_type;location;lat;lon;timestamp;temperature;humidity
9448;DHT22;4762;48.128;11.376;2023-11-18T00:01:52;3.90;89.40
9448;DHT22;4762;48.128;11.376;2023-11-18T00:03:54;4.00;89.40
9448;DHT22;4762;48.128;11.376;2023-11-18T00:05:56;4.00;89.20
9448;DHT22;4762;48.128;11.376;2023-11-18T00:07:58;3.70;89.30
9448;DHT22;4762;48.128;11.376;2023-11-18T00:10:01;3.70;88.90
9448;DHT22;4762;48.128;11.376;2023-11-18T00:12:03;3.70;88.90
9448;DHT22;4762;48.128;11.376;2023-11-18T00:14:06;3.50;88.80
9448;DHT22;4762;48.128;11.376;2023-11-18T00:16:09;3.70;89.00
9448;DHT22;4762;48.128;11.376;2023-11-18T00:18:14;3.70;88.70
9448;DHT22;4762;48.128;11.376;2023-11-18T00:20:16;3.50;88.90
9448;DHT22;4762;48.128;11.376;2023-11-18T00:22:19;3.60;89.10
9448;DHT22;4762;48.128;11.376;2023-11-18T00:24:22;3.80;89.00
9448;DHT22;4762;48.128;11.376;2023-11-18T00:26:24;3.80;89.20
9448;DHT22;4762;48.128;11.376;2023-11-18T00:28:26;3.70;89.00
9448;DHT22;4762;48.128;11.376;2023-11-18T00:30:28;3.50;88.60
9448;DHT22;4762;48.128;11.376;2023-11-18T00:32:31;3.60;89.00
9448;DHT22;4762;48.128;11.376;2023-11-18T00:34:33;3.60;88.40
9448;DHT22;4762;48.128;11.376;2023-11-18T00:36:35;3.60;88.70
9448;DHT22;4762;48.128;11.376;2023-11-18T00:38:37;3.70;88.50
9448;DHT22;4762;48.128;11.376;2023-11-18T00:40:40;3.60;88.60
9448;DHT22;4762;48.128;11.376;2023-11-18T00:42:42;3.70;88.60
9448;DHT22;4762;48.128;11.376;2023-11-18T00:44:44;3.60;88.30
9448;DHT22;4762;48.128;11.376;2023-11-18T00:46:46;3.50;88.50
9448;DHT22;4762;48.128;11.376;2023-11-18T00:48:48;3.50;88.50
9448;DHT22;4762;48.128;11.376;2023-11-18T00:50:51;3.40;88.30
9448;DHT22;4762;48.128;11.376;2023-11-18T00:52:53;3.60;88.80
9448;DHT22;4762;48.128;11.376;2023-11-18T00:54:55;3.60;88.80
9448;DHT22;4762;48.128;11.376;2023-11-18T00:56:57;3.70;88.90
9448;DHT22;4762;48.128;11.376;2023-11-18T00:59:00;3.50;89.00
9448;DHT22;4762;48.128;11.376;2023-11-18T01:01:03;3.60;88.90
9448;DHT22;4762;48.128;11.376;2023-11-18T01:03:05;3.40;89.00
9448;DHT22;4762;48.128;11.376;2023-11-18T01:05:08;3.40;89.00
9448;DHT22;4762;48.128;11.376;2023-11-18T01:07:10;3.30;89.10
9448;DHT22;4762;48.128;11.376;2023-11-18T01:09:12;3.40;89.10
9448;DHT22;4762;48.128;11.376;2023-11-18T01:11:16;3.50;89.10
9448;DHT22;4762;48.128;11.376;2023-11-18T01:13:17;3.50;89.10
9448;DHT22;4762;48.128;11.376;2023-11-18T01:15:20;3.30;89.00
9448;DHT22;4762;48.128;11.376;2023-11-18T01:17:22;3.40;88.90
9448;DHT22;4762;48.128;11.376;2023-11-18T01:19:24;3.40;89.30
9448;DHT22;4762;48.128;11.376;2023-11-18T01:21:26;3.50;89.10
9448;DHT22;4762;48.128;11.376;2023-11-18T01:23:28;3.30;89.10
9448;DHT22;4762;48.128;11.376;2023-11-18T01:25:31;3.40;89.10
9448;DHT22;4762;48.128;11.376;2023-11-18T01:27:33;3.50;88.90
9448;DHT22;4762;48.128;11.376;2023-11-18T01:29:36;3.50;89.10
9448;DHT22;4762;48.128;11.376;2023-11-18T01:31:38;3.50;89.00
9448;DHT22;4762;48.128;11.376;2023-11-18T01:33:41;3.40;89.20
9448;DHT22;4762;48.128;11.376;2023-11-18T01:35:43;3.40;89.00
9448;DHT22;4762;48.128;11.376;2023-11-18T01:37:45;3.40;88.80
9448;DHT22;4762;48.128;11.376;2023-11-18T01:39:48;3.50;88.60
9448;DHT22;4762;48.128;11.376;2023-11-18T01:41:50;3.70;88.60
9448;DHT22;4762;48.128;11.376;2023-11-18T01:43:52;3.60;88.70
9448;DHT22;4762;48.128;11.376;2023-11-18T01:45:54;3.60;88.50
9448;DHT22;4762;48.128;11.376;2023-11-18T01:47:56;3.70;88.90
9448;DHT22;4762;48.128;11.376;2023-11-18T01:49:59;3.60;88.80
9448;DHT22;4762;48.128;11.376;2023-11-18T01:52:01;3.50;88.60
9448;DHT22;4762;48.128;11.376;2023-11-18T01:54:03;3.70;88.80
9448;DHT22;4762;48.128;11.376;2023-11-18T01:56:06;3.60;88.80
9448;DHT22;4762;48.128;11.376;2023-11-18T01:58:08;3.70;88.60
9448;DHT22;4762;48.128;11.376;2023-11-18T02:00:11;3.70;88.80
9448;DHT22;4762;48.128;11.376;2023-11-18T02:02:13;3.60;88.70
9448;DHT22;4762;48.128;11.376;2023-11-18T02:04:15;3.70;88.50
9448;DHT22;4762;48.128;11.376;2023-11-18T02:06:18;3.30;88.60
9448;DHT22;4762;48.128;11.376;2023-11-18T02:08:20;3.80;88.90
9448;DHT22;4762;48.128;11.376;2023-11-18T02:10:22;3.60;88.80
9448;DHT22;4762;48.128;11.376;2023-11-18T02:12:28;3.60;88.60
9448;DHT22;4762;48.128;11.376;2023-11-18T02:14:28;3.70;88.80
9448;DHT22;4762;48.128;11.376;2023-11-18T02:16:31;3.70;88.60
9448;DHT22;4762;48.128;11.376;2023-11-18T02:18:33;3.70;88.60
9448;DHT22;4762;48.128;11.376;2023-11-18T02:20:36;3.70;88.50
9448;DHT22;4762;48.128;11.376;2023-11-18T02:22:40;3.80;88.70
9448;DHT22;4762;48.128;11.376;2023-11-18T02:24:40;3.60;88.60
9448;DHT22;4762;48.128;11.376;2023-11-18T02:26:43;3.70;88.70
9448;DHT22;4762;48.128;11.376;2023-11-18T02:28:45;3.60;88.80
9448;DHT22;4762;48.128;11.376;2023-11-18T02:30:47;3.60;88.80
9448;DHT22;4762;48.128;11.376;2023-11-18T02:32:59;3.70;88.80
9448;DHT22;4762;48.128;11.376;2023-11-18T02:35:10;3.70;88.60
9448;DHT22;4762;48.128;11.376;2023-11-18T02:37:15;3.80;88.70
9448;DHT22;4762;48.128;11.376;2023-11-18T02:39:21;3.70;88.60
9448;DHT22;4762;48.128;11.376;2023-11-18T02:41:23;3.50;88.60
9448;DHT22;4762;48.128;11.376;2023-11-18T02:43:25;3.80;88.80
9448;DHT22;4762;48.128;11.376;2023-11-18T02:45:27;3.40;89.00
9448;DHT22;4762;48.128;11.376;2023-11-18T02:47:29;3.60;89.00
9448;DHT22;4762;48.128;11.376;2023-11-18T02:49:32;3.60;88.90
9448;DHT22;4762;48.128;11.376;2023-11-18T02:51:35;3.60;88.80
9448;DHT22;4762;48.128;11.376;2023-11-18T02:53:37;3.30;89.00
9448;DHT22;4762;48.128;11.376;2023-11-18T02:55:39;3.70;89.10
9448;DHT22;4762;48.128;11.376;2023-11-18T02:57:41;3.50;89.00
9448;DHT22;4762;48.128;11.376;2023-11-18T02:59:43;3.50;89.30
9448;DHT22;4762;48.128;11.376;2023-11-18T03:01:46;3.40;89.10
9448;DHT22;4762;48.128;11.376;2023-11-18T03:03:48;3.40;89.20
9448;DHT22;4762;48.128;11.376;2023-11-18T03:05:50;3.40;89.20
9448;DHT22;4762;48.128;11.376;2023-11-18T03:07:52;3.50;89.10
9448;DHT22;4762;48.128;11.376;2023-11-18T03:09:54;3.50;89.30
9448;DHT22;4762;48.128;11.376;2023-11-18T03:11:57;3.60;89.30
9448;DHT22;4762;48.128;11.376;2023-11-18T03:13:59;3.40;89.20
9448;DHT22;4762;48.128;11.376;2023-11-18T03:16:05;3.40;89.20
9448;DHT22;4762;48.128;11.376;2023-11-18T03:18:05;3.60;89.10
9448;DHT22;4762;48.128;11.376;2023-11-18T03:20:07;3.50;89.20
9448;DHT22;4762;48.128;11.376;2023-11-18T03:22:10;3.60;89.30
9448;DHT22;4762;48.128;11.376;2023-11-18T03:24:12;3.50;89.30
9448;DHT22;4762;48.128;11.376;2023-11-18T03:26:14;3.50;89.10
9448;DHT22;4762;48.128;11.376;2023-11-18T03:28:16;3.50;89.10
9448;DHT22;4762;48.128;11.376;2023-11-18T03:30:18;3.40;89.30
9448;DHT22;4762;48.128;11.376;2023-11-18T03:32:21;3.40;89.30
9448;DHT22;4762;48.128;11.376;2023-11-18T03:34:23;3.40;89.40
9448;DHT22;4762;48.128;11.376;2023-11-18T03:36:25;3.20;89.50
9448;DHT22;4762;48.128;11.376;2023-11-18T03:38:27;3.50;89.70
9448;DHT22;4762;48.128;11.376;2023-11-18T03:40:29;3.40;89.90
9448;DHT22;4762;48.128;11.376;2023-11-18T03:42:32;3.40;89.60
9448;DHT22;4762;48.128;11.376;2023-11-18T03:44:34;3.50;89.50
9448;DHT22;4762;48.128;11.376;2023-11-18T03:46:36;3.50;89.50
9448;DHT22;4762;48.128;11.376;2023-11-18T03:48:38;3.40;89.40
9448;DHT22;4762;48.128;11.376;2023-11-18T03:50:41;3.40;89.60
9448;DHT22;4762;48.128;11.376;2023-11-18T03:52:43;3.60;89.30
9448;DHT22;4762;48.128;11.376;2023-11-18T03:54:45;3.70;89.30
9448;DHT22;4762;48.128;11.376;2023-11-18T03:56:47;3.60;89.20
9448;DHT22;4762;48.128;11.376;2023-11-18T03:58:49;3.60;89.10
9448;DHT22;4762;48.128;11.376;2023-11-18T04:00:51;3.50;88.90
9448;DHT22;4762;48.128;11.376;2023-11-18T04:02:54;3.70;89.10
9448;DHT22;4762;48.128;11.376;2023-11-18T04:04:56;3.70;89.10
9448;DHT22;4762;48.128;11.376;2023-11-18T04:06:58;3.60;89.20
9448;DHT22;4762;48.128;11.376;2023-11-18T04:09:00;3.80;89.20
9448;DHT22;4762;48.128;11.376;2023-11-18T04:11:03;3.50;89.00
9448;DHT22;4762;48.128;11.376;2023-11-18T04:13:05;3.60;89.00
9448;DHT22;4762;48.128;11.376;2023-11-18T04:15:07;3.60;88.90
9448;DHT22;4762;48.128;11.376;2023-11-18T04:17:10;3.70;88.90
9448;DHT22;4762;48.128;11.376;2023-11-18T04:19:12;3.80;88.60
9448;DHT22;4762;48.128;11.376;2023-11-18T04:21:14;3.70;88.80
9448;DHT22;4762;48.128;11.376;2023-11-18T04:23:16;3.80;88.60
9448;DHT22;4762;48.128;11.376;2023-11-18T04:25:18;3.80;88.40
9448;DHT22;4762;48.128;11.376;2023-11-18T04:27:21;3.60;88.60
9448;DHT22;4762;48.128;11.376;2023-11-18T04:29:23;3.50;88.40
9448;DHT22;4762;48.128;11.376;2023-11-18T04:31:25;3.60;88.20
9448;DHT22;4762;48.128;11.376;2023-11-18T04:33:27;3.70;88.40
9448;DHT22;4762;48.128;11.376;2023-11-18T04:35:29;3.70;88.20
9448;DHT22;4762;48.128;11.376;2023-11-18T04:37:32;3.60;88.20
9448;DHT22;4762;48.128;11.376;2023-11-18T04:39:34;3.70;88.30
9448;DHT22;4762;48.128;11.376;2023-11-18T04:41:36;3.60;88.70
9448;DHT22;4762;48.128;11.376;2023-11-18T04:43:38;3.60;88.40
9448;DHT22;4762;48.128;11.376;2023-11-18T04:45:42;3.70;88.60
9448;DHT22;4762;48.128;11.376;2023-11-18T04:47:44;3.50;88.80
9448;DHT22;4762;48.128;11.376;2023-11-18T04:49:46;3.70;88.80
9448;DHT22;4762;48.128;11.376;2023-11-18T04:51:48;3.70;88.60
9448;DHT22;4762;48.128;11.376;2023-11-18T04:53:51;3.60;88.50
9448;DHT22;4762;48.128;11.376;2023-11-18T04:55:53;3.50;88.60
9448;DHT22;4762;48.128;11.376;2023-11-18T04:57:56;3.50;88.90
9448;DHT22;4762;48.128;11.376;2023-11-18T04:59:58;3.40;88.80
9448;DHT22;4762;48.128;11.376;2023-11-18T05:02:00;3.50;89.00
9448;DHT22;4762;48.128;11.376;2023-11-18T05:04:03;3.50;89.00
9448;DHT22;4762;48.128;11.376;2023-11-18T05:06:05;3.60;88.90
9448;DHT22;4762;48.128;11.376;2023-11-18T05:08:16;3.50;88.90
9448;DHT22;4762;48.128;11.376;2023-11-18T05:10:10;3.40;88.70
9448;DHT22;4762;48.128;11.376;2023-11-18T05:12:12;3.60;88.70
9448;DHT22;4762;48.128;11.376;2023-11-18T05:14:14;3.60;88.50
9448;DHT22;4762;48.128;11.376;2023-11-18T05:16:17;3.60;88.50
9448;DHT22;4762;48.128;11.376;2023-11-18T05:18:19;3.70;88.70
9448;DHT22;4762;48.128;11.376;2023-11-18T05:20:23;3.60;88.70
9448;DHT22;4762;48.128;11.376;2023-11-18T05:22:24;3.70;88.60
9448;DHT22;4762;48.128;11.376;2023-11-18T05:24:26;3.60;88.70
9448;DHT22;4762;48.128;11.376;2023-11-18T05:26:29;3.40;88.50
9448;DHT22;4762;48.128;11.376;2023-11-18T05:28:31;3.50;88.50
9448;DHT22;4762;48.128;11.376;2023-11-18T05:30:34;3.40;88.50
9448;DHT22;4762;48.128;11.376;2023-11-18T05:32:36;3.70;88.50
9448;DHT22;4762;48.128;11.376;2023-11-18T05:34:38;3.50;88.70
9448;DHT22;4762;48.128;11.376;2023-11-18T05:36:40;3.60;89.00
9448;DHT22;4762;48.128;11.376;2023-11-18T05:38:42;3.40;88.70
9448;DHT22;4762;48.128;11.376;2023-11-18T05:40:45;3.60;88.50
9448;DHT22;4762;48.128;11.376;2023-11-18T05:42:47;3.60;88.60
9448;DHT22;4762;48.128;11.376;2023-11-18T05:44:49;3.60;88.60
9448;DHT22;4762;48.128;11.376;2023-11-18T05:46:51;3.60;88.70
9448;DHT22;4762;48.128;11.376;2023-11-18T05:48:53;3.80;88.80
9448;DHT22;4762;48.128;11.376;2023-11-18T05:50:55;3.60;88.70
9448;DHT22;4762;48.128;11.376;2023-11-18T05:52:57;3.60;88.90
9448;DHT22;4762;48.128;11.376;2023-11-18T05:55:00;3.70;88.80
9448;DHT22;4762;48.128;11.376;2023-11-18T05:57:02;3.60;88.60
9448;DHT22;4762;48.128;11.376;2023-11-18T05:59:04;3.70;88.70
9448;DHT22;4762;48.128;11.376;2023-11-18T06:01:06;3.60;88.70
9448;DHT22;4762;48.128;11.376;2023-11-18T06:03:08;3.70;88.60
9448;DHT22;4762;48.128;11.376;2023-11-18T06:05:11;3.80;88.60
9448;DHT22;4762;48.128;11.376;2023-11-18T06:07:13;3.70;88.50
9448;DHT22;4762;48.128;11.376;2023-11-18T06:09:15;3.70;88.40
9448;DHT22;4762;48.128;11.376;2023-11-18T06:11:17;3.90;88.50
9448;DHT22;4762;48.128;11.376;2023-11-18T06:13:20;3.80;88.60
9448;DHT22;4762;48.128;11.376;2023-11-18T06:15:22;3.90;88.40
9448;DHT22;4762;48.128;11.376;2023-11-18T06:17:24;3.70;88.20
9448;DHT22;4762;48.128;11.376;2023-11-18T06:19:26;3.70;88.10
9448;DHT22;4762;48.128;11.376;2023-11-18T06:21:28;3.80;88.20
9448;DHT22;4762;48.128;11.376;2023-11-18T06:23:31;3.80;88.40
9448;DHT22;4762;48.128;11.376;2023-11-18T06:25:33;3.90;88.10
9448;DHT22;4762;48.128;11.376;2023-11-18T06:27:35;3.80;88.10
9448;DHT22;4762;48.128;11.376;2023-11-18T06:29:37;3.80;88.20
9448;DHT22;4762;48.128;11.376;2023-11-18T06:31:39;3.70;88.10
9448;DHT22;4762;48.128;11.376;2023-11-18T06:33:42;4.00;88.40
9448;DHT22;4762;48.128;11.376;2023-11-18T06:35:45;3.80;88.20
9448;DHT22;4762;48.128;11.376;2023-11-18T06:37:47;3.90;88.10
9448;DHT22;4762;48.128;11.376;2023-11-18T06:39:49;3.80;88.10
9448;DHT22;4762;48.128;11.376;2023-11-18T06:41:51;4.00;88.30
9448;DHT22;4762;48.128;11.376;2023-11-18T06:43:53;4.00;88.50
9448;DHT22;4762;48.128;11.376;2023-11-18T06:45:58;3.90;88.10
9448;DHT22;4762;48.128;11.376;2023-11-18T06:48:00;3.90;88.00
9448;DHT22;4762;48.128;11.376;2023-11-18T06:50:03;3.90;88.30
9448;DHT22;4762;48.128;11.376;2023-11-18T06:52:05;3.80;88.00
9448;DHT22;4762;48.128;11.376;2023-11-18T06:54:07;3.80;87.90
9448;DHT22;4762;48.128;11.376;2023-11-18T06:56:10;4.00;88.20
9448;DHT22;4762;48.128;11.376;2023-11-18T06:58:12;3.80;88.10
9448;DHT22;4762;48.128;11.376;2023-11-18T07:00:15;3.90;88.00
9448;DHT22;4762;48.128;11.376;2023-11-18T07:02:17;4.00;88.00
9448;DHT22;4762;48.128;11.376;2023-11-18T07:04:19;4.10;87.90
9448;DHT22;4762;48.128;11.376;2023-11-18T07:06:21;4.20;88.30
9448;DHT22;4762;48.128;11.376;2023-11-18T07:08:23;4.10;87.90
9448;DHT22;4762;48.128;11.376;2023-11-18T07:10:26;4.00;87.80
9448;DHT22;4762;48.128;11.376;2023-11-18T07:12:28;4.00;87.70
9448;DHT22;4762;48.128;11.376;2023-11-18T07:14:30;4.10;87.90
9448;DHT22;4762;48.128;11.376;2023-11-18T07:16:32;4.10;87.60
9448;DHT22;4762;48.128;11.376;2023-11-18T07:18:35;4.00;87.40
9448;DHT22;4762;48.128;11.376;2023-11-18T07:20:37;4.10;87.90
9448;DHT22;4762;48.128;11.376;2023-11-18T07:22:39;4.10;87.70
9448;DHT22;4762;48.128;11.376;2023-11-18T07:24:41;4.20;87.70
9448;DHT22;4762;48.128;11.376;2023-11-18T07:26:44;4.40;87.30
9448;DHT22;4762;48.128;11.376;2023-11-18T07:28:46;4.40;87.40
9448;DHT22;4762;48.128;11.376;2023-11-18T07:30:48;4.30;87.10
9448;DHT22;4762;48.128;11.376;2023-11-18T07:32:51;4.30;87.30
9448;DHT22;4762;48.128;11.376;2023-11-18T07:34:53;4.50;87.20
9448;DHT22;4762;48.128;11.376;2023-11-18T07:36:55;4.50;87.40
9448;DHT22;4762;48.128;11.376;2023-11-18T07:38:57;4.50;86.70
9448;DHT22;4762;48.128;11.376;2023-11-18T07:40:59;4.60;86.90
9448;DHT22;4762;48.128;11.376;2023-11-18T07:43:02;4.50;86.50
9448;DHT22;4762;48.128;11.376;2023-11-18T07:45:05;4.40;86.80
9448;DHT22;4762;48.128;11.376;2023-11-18T07:47:07;4.50;87.20
9448;DHT22;4762;48.128;11.376;2023-11-18T07:49:10;4.60;86.60
9448;DHT22;4762;48.128;11.376;2023-11-18T07:51:12;4.70;87.10
9448;DHT22;4762;48.128;11.376;2023-11-18T07:53:15;4.70;86.60
9448;DHT22;4762;48.128;11.376;2023-11-18T07:55:17;4.70;85.80
9448;DHT22;4762;48.128;11.376;2023-11-18T07:57:19;4.70;85.90
9448;DHT22;4762;48.128;11.376;2023-11-18T07:59:21;4.80;86.40
9448;DHT22;4762;48.128;11.376;2023-11-18T08:01:23;4.70;86.60
9448;DHT22;4762;48.128;11.376;2023-11-18T08:03:25;4.70;85.80
9448;DHT22;4762;48.128;11.376;2023-11-18T08:05:28;4.80;86.00
9448;DHT22;4762;48.128;11.376;2023-11-18T08:07:30;4.90;86.20
9448;DHT22;4762;48.128;11.376;2023-11-18T08:09:32;4.60;86.00
9448;DHT22;4762;48.128;11.376;2023-11-18T08:11:34;4.70;85.90
9448;DHT22;4762;48.128;11.376;2023-11-18T08:13:36;4.70;86.80
9448;DHT22;4762;48.128;11.376;2023-11-18T08:15:39;4.70;86.70
9448;DHT22;4762;48.128;11.376;2023-11-18T08:17:42;4.80;85.70
9448;DHT22;4762;48.128;11.376;2023-11-18T08:19:44;4.80;85.90
9448;DHT22;4762;48.128;11.376;2023-11-18T08:21:46;4.90;86.90
9448;DHT22;4762;48.128;11.376;2023-11-18T08:23:48;4.90;85.60
9448;DHT22;4762;48.128;11.376;2023-11-18T08:25:51;5.10;85.90
9448;DHT22;4762;48.128;11.376;2023-11-18T08:27:53;4.80;85.00
9448;DHT22;4762;48.128;11.376;2023-11-18T08:29:55;5.00;86.00
9448;DHT22;4762;48.128;11.376;2023-11-18T08:31:57;4.90;85.40
9448;DHT22;4762;48.128;11.376;2023-11-18T08:33:59;5.10;85.50
9448;DHT22;4762;48.128;11.376;2023-11-18T08:36:02;5.20;85.90
9448;DHT22;4762;48.128;11.376;2023-11-18T08:38:04;5.40;85.20
9448;DHT22;4762;48.128;11.376;2023-11-18T08:40:07;5.40;86.00
9448;DHT22;4762;48.128;11.376;2023-11-18T08:42:09;5.40;83.60
9448;DHT22;4762;48.128;11.376;2023-11-18T08:44:11;5.60;84.60
9448;DHT22;4762;48.128;11.376;2023-11-18T08:46:15;5.60;83.50
9448;DHT22;4762;48.128;11.376;2023-11-18T08:48:17;5.80;84.40
9448;DHT22;4762;48.128;11.376;2023-11-18T08:50:19;5.90;82.90
9448;DHT22;4762;48.128;11.376;2023-11-18T08:52:21;5.80;81.80
9448;DHT22;4762;48.128;11.376;2023-11-18T08:54:23;5.90;82.70
9448;DHT22;4762;48.128;11.376;2023-11-18T08:56:25;6.10;82.50
9448;DHT22;4762;48.128;11.376;2023-11-18T08:58:28;6.00;81.50
9448;DHT22;4762;48.128;11.376;2023-11-18T09:00:30;6.20;81.40
9448;DHT22;4762;48.128;11.376;2023-11-18T09:02:38;6.20;82.30
9448;DHT22;4762;48.128;11.376;2023-11-18T09:04:40;6.30;81.60
9448;DHT22;4762;48.128;11.376;2023-11-18T09:06:42;6.40;82.60
9448;DHT22;4762;48.128;11.376;2023-11-18T09:08:45;6.40;81.10
9448;DHT22;4762;48.128;11.376;2023-11-18T09:10:47;6.10;80.70
9448;DHT22;4762;48.128;11.376;2023-11-18T09:12:49;6.20;81.60
9448;DHT22;4762;48.128;11.376;2023-11-18T09:14:51;6.20;81.80
9448;DHT22;4762;48.128;11.376;2023-11-18T09:16:53;6.30;80.80
9448;DHT22;4762;48.128;11.376;2023-11-18T09:18:56;6.30;80.90
9448;DHT22;4762;48.128;11.376;2023-11-18T09:20:58;6.30;80.40
9448;DHT22;4762;48.128;11.376;2023-11-18T09:23:00;6.20;79.70
9448;DHT22;4762;48.128;11.376;2023-11-18T09:25:03;6.10;80.50
9448;DHT22;4762;48.128;11.376;2023-11-18T09:27:05;6.30;79.70
9448;DHT22;4762;48.128;11.376;2023-11-18T09:29:07;6.20;81.60
9448;DHT22;4762;48.128;11.376;2023-11-18T09:31:10;6.80;79.80
9448;DHT22;4762;48.128;11.376;2023-11-18T09:33:13;7.80;78.00
9448;DHT22;4762;48.128;11.376;2023-11-18T09:35:15;8.10;75.30
9448;DHT22;4762;48.128;11.376;2023-11-18T09:37:17;8.20;73.40
9448;DHT22;4762;48.128;11.376;2023-11-18T09:39:19;8.00;73.30
9448;DHT22;4762;48.128;11.376;2023-11-18T09:41:27;7.90;74.60
9448;DHT22;4762;48.128;11.376;2023-11-18T09:43:30;8.00;73.90
9448;DHT22;4762;48.128;11.376;2023-11-18T09:45:34;8.20;74.50
9448;DHT22;4762;48.128;11.376;2023-11-18T09:47:36;8.10;73.20
9448;DHT22;4762;48.128;11.376;2023-11-18T09:49:40;7.70;73.90
9448;DHT22;4762;48.128;11.376;2023-11-18T09:51:42;8.00;75.30
9448;DHT22;4762;48.128;11.376;2023-11-18T09:53:44;8.00;74.00
9448;DHT22;4762;48.128;11.376;2023-11-18T09:55:50;7.90;73.80
9448;DHT22;4762;48.128;11.376;2023-11-18T09:57:52;7.70;74.40
9448;DHT22;4762;48.128;11.376;2023-11-18T09:59:59;7.80;73.60
9448;DHT22;4762;48.128;11.376;2023-11-18T10:02:00;7.80;73.70
9448;DHT22;4762;48.128;11.376;2023-11-18T10:04:02;7.80;74.00
9448;DHT22;4762;48.128;11.376;2023-11-18T10:06:05;7.80;72.90
9448;DHT22;4762;48.128;11.376;2023-11-18T10:08:07;7.90;72.80
9448;DHT22;4762;48.128;11.376;2023-11-18T10:10:09;7.90;72.80
9448;DHT22;4762;48.128;11.376;2023-11-18T10:12:18;8.00;72.30
9448;DHT22;4762;48.128;11.376;2023-11-18T10:14:20;8.40;71.00
9448;DHT22;4762;48.128;11.376;2023-11-18T10:16:22;8.40;70.20
9448;DHT22;4762;48.128;11.376;2023-11-18T10:18:25;8.50;69.70
9448;DHT22;4762;48.128;11.376;2023-11-18T10:20:43;8.70;72.40
9448;DHT22;4762;48.128;11.376;2023-11-18T10:22:44;8.00;71.40
9448;DHT22;4762;48.128;11.376;2023-11-18T10:24:46;7.80;71.70
9448;DHT22;4762;48.128;11.376;2023-11-18T10:26:55;7.60;71.90
9448;DHT22;4762;48.128;11.376;2023-11-18T10:29:02;8.00;72.50
9448;DHT22;4762;48.128;11.376;2023-11-18T10:31:00;7.90;72.00
9448;DHT22;4762;48.128;11.376;2023-11-18T10:33:05;7.60;75.50
9448;DHT22;4762;48.128;11.376;2023-11-18T10:35:08;7.10;73.60
9448;DHT22;4762;48.128;11.376;2023-11-18T10:37:10;7.10;73.70
9448;DHT22;4762;48.128;11.376;2023-11-18T10:39:13;6.90;75.00
9448;DHT22;4762;48.128;11.376;2023-11-18T10:41:18;6.50;75.30
9448;DHT22;4762;48.128;11.376;2023-11-18T10:43:22;6.50;75.30
9448;DHT22;4762;48.128;11.376;2023-11-18T10:45:26;6.40;75.80
9448;DHT22;4762;48.128;11.376;2023-11-18T10:47:32;6.70;76.50
9448;DHT22;4762;48.128;11.376;2023-11-18T10:49:31;6.70;77.40
9448;DHT22;4762;48.128;11.376;2023-11-18T10:51:35;6.90;77.50
9448;DHT22;4762;48.128;11.376;2023-11-18T10:53:41;7.50;73.20
9448;DHT22;4762;48.128;11.376;2023-11-18T10:55:44;7.40;72.70
9448;DHT22;4762;48.128;11.376;2023-11-18T10:57:46;6.90;73.80
9448;DHT22;4762;48.128;11.376;2023-11-18T11:00:05;6.90;75.90
9448;DHT22;4762;48.128;11.376;2023-11-18T11:02:18;6.60;75.10
9448;DHT22;4762;48.128;11.376;2023-11-18T11:04:20;6.40;75.60
9448;DHT22;4762;48.128;11.376;2023-11-18T11:06:23;6.60;78.00
9448;DHT22;4762;48.128;11.376;2023-11-18T11:08:25;6.60;76.60
9448;DHT22;4762;48.128;11.376;2023-11-18T11:10:27;6.60;76.70
9448;DHT22;4762;48.128;11.376;2023-11-18T11:12:49;6.60;75.30
9448;DHT22;4762;48.128;11.376;2023-11-18T11:14:45;6.40;77.40
9448;DHT22;4762;48.128;11.376;2023-11-18T11:16:47;7.00;75.60
9448;DHT22;4762;48.128;11.376;2023-11-18T11:18:48;8.50;71.70
9448;DHT22;4762;48.128;11.376;2023-11-18T11:21:01;9.10;66.30
9448;DHT22;4762;48.128;11.376;2023-11-18T11:23:10;8.40;67.20
9448;DHT22;4762;48.128;11.376;2023-11-18T11:25:12;7.70;68.70
9448;DHT22;4762;48.128;11.376;2023-11-18T11:27:17;7.60;69.50
9448;DHT22;4762;48.128;11.376;2023-11-18T11:29:24;7.50;70.40
9448;DHT22;4762;48.128;11.376;2023-11-18T11:31:26;7.20;69.50
9448;DHT22;4762;48.128;11.376;2023-11-18T11:33:29;7.20;72.60
9448;DHT22;4762;48.128;11.376;2023-11-18T11:35:31;7.20;70.90
9448;DHT22;4762;48.128;11.376;2023-11-18T11:37:35;7.40;72.00
9448;DHT22;4762;48.128;11.376;2023-11-18T11:39:38;7.30;72.40
9448;DHT22;4762;48.128;11.376;2023-11-18T11:41:50;7.40;71.60
9448;DHT22;4762;48.128;11.376;2023-11-18T11:43:52;7.70;72.10
9448;DHT22;4762;48.128;11.376;2023-11-18T11:45:57;7.50;72.20
9448;DHT22;4762;48.128;11.376;2023-11-18T11:48:00;7.40;71.90
9448;DHT22;4762;48.128;11.376;2023-11-18T11:50:21;7.50;71.80
9448;DHT22;4762;48.128;11.376;2023-11-18T11:52:19;7.50;71.70
9448;DHT22;4762;48.128;11.376;2023-11-18T11:54:23;7.60;72.70
9448;DHT22;4762;48.128;11.376;2023-11-18T11:56:37;7.80;70.20
9448;DHT22;4762;48.128;11.376;2023-11-18T11:58:35;7.80;70.10
9448;DHT22;4762;48.128;11.376;2023-11-18T12:00:38;8.00;68.70
9448;DHT22;4762;48.128;11.376;2023-11-18T12:02:49;8.20;70.70
9448;DHT22;4762;48.128;11.376;2023-11-18T12:04:51;8.70;70.30
9448;DHT22;4762;48.128;11.376;2023-11-18T12:06:53;8.70;68.80
9448;DHT22;4762;48.128;11.376;2023-11-18T12:08:56;8.70;68.30
9448;DHT22;4762;48.128;11.376;2023-11-18T12:10:58;8.40;66.80
9448;DHT22;4762;48.128;11.376;2023-11-18T12:13:09;8.10;67.00
9448;DHT22;4762;48.128;11.376;2023-11-18T12:15:12;8.00;66.90
9448;DHT22;4762;48.128;11.376;2023-11-18T12:17:13;7.70;66.80
9448;DHT22;4762;48.128;11.376;2023-11-18T12:19:29;7.70;67.50
9448;DHT22;4762;48.128;11.376;2023-11-18T12:24:14;7.80;65.90
9448;DHT22;4762;48.128;11.376;2023-11-18T12:26:37;7.50;68.20
9448;DHT22;4762;48.128;11.376;2023-11-18T12:28:09;7.80;70.00
9448;DHT22;4762;48.128;11.376;2023-11-18T12:30:41;7.90;66.30
9448;DHT22;4762;48.128;11.376;2023-11-18T12:32:59;8.20;67.60
9448;DHT22;4762;48.128;11.376;2023-11-18T12:35:16;8.40;66.20
9448;DHT22;4762;48.128;11.376;2023-11-18T12:37:33;7.90;66.30
9448;DHT22;4762;48.128;11.376;2023-11-18T12:39:40;7.60;66.60
9448;DHT22;4762;48.128;11.376;2023-11-18T12:41:36;7.80;68.80
9448;DHT22;4762;48.128;11.376;2023-11-18T12:43:46;8.00;66.90
9448;DHT22;4762;48.128;11.376;2023-11-18T12:45:58;8.00;67.00
9448;DHT22;4762;48.128;11.376;2023-11-18T12:47:55;7.60;65.30
9448;DHT22;4762;48.128;11.376;2023-11-18T12:49:56;7.70;65.70
9448;DHT22;4762;48.128;11.376;2023-11-18T12:51:58;7.60;65.30
9448;DHT22;4762;48.128;11.376;2023-11-18T12:54:01;7.90;64.40
9448;DHT22;4762;48.128;11.376;2023-11-18T12:56:04;7.60;65.90
9448;DHT22;4762;48.128;11.376;2023-11-18T12:58:06;7.60;65.90
9448;DHT22;4762;48.128;11.376;2023-11-18T13:00:09;7.60;67.00
9448;DHT22;4762;48.128;11.376;2023-11-18T13:02:13;7.80;65.70
9448;DHT22;4762;48.128;11.376;2023-11-18T13:04:17;7.50;64.80
9448;DHT22;4762;48.128;11.376;2023-11-18T13:06:19;7.50;65.70
9448;DHT22;4762;48.128;11.376;2023-11-18T13:08:21;7.50;66.30
9448;DHT22;4762;48.128;11.376;2023-11-18T13:10:23;7.60;65.90
9448;DHT22;4762;48.128;11.376;2023-11-18T13:12:25;7.40;66.80
9448;DHT22;4762;48.128;11.376;2023-11-18T13:14:28;7.40;66.50
9448;DHT22;4762;48.128;11.376;2023-11-18T13:16:33;7.60;66.30
9448;DHT22;4762;48.128;11.376;2023-11-18T13:18:45;7.30;68.20
9448;DHT22;4762;48.128;11.376;2023-11-18T13:20:54;7.40;66.60
9448;DHT22;4762;48.128;11.376;2023-11-18T13:22:55;7.60;68.50
9448;DHT22;4762;48.128;11.376;2023-11-18T13:24:58;7.70;68.10
9448;DHT22;4762;48.128;11.376;2023-11-18T13:27:00;7.50;69.60